Latest Weather Observations for Larapuna (Eddystone Point)

IDT60801

Issued at 6:32 am EST Friday 23 June 2017 (issued every 30 minutes, with the page automatically refreshed every 10 minutes)

About weather observations | Map of weather stations | Latest weather observations for TAS | Other Formats
Station Details ID: 092045 Name: LARAPUNA (EDDYSTONE POINT) Lat: -40.99 Lon: 148.35 Height: 19.7 m
Data from the previous 72 hours. | See also: Recent months at Larapuna (Eddystone Point)
Date/Time
EST
Temp
°C
App
Temp
°C
Dew
Point
°C
Rel
Hum
%
Delta-T
°C
Wind Press
QNH
hPa
Press
MSL
hPa
Rain since
9am
mm
Dir  Spd
km/h
Gust
km/h
Spd
kts
Gust
kts
23/06:30am 12.4 6.2 10.1 86 1.2 NW 33 46 18 25 1012.2 1012.2 0.2
23/06:00am 12.7 5.8 10.2 85 1.3 NW 37 50 20 27 1012.4 1012.4 0.0
23/05:30am 12.3 6.8 10.5 89 0.9 NW 30 43 16 23 1012.5 1012.5 0.0
23/05:15am 11.8 6.6 10.2 90 0.8 NW 28 46 15 25 1012.6 1012.6 0.0
23/05:00am 11.1 6.5 9.5 90 0.8 NW 24 32 13 17 1013.1 1013.1 0.0
23/04:30am 10.5 7.0 8.9 90 0.8 NW 17 24 9 13 1013.7 1013.7 0.0
23/04:00am 10.1 6.0 8.5 90 0.8 NW 20 26 11 14 1014.3 1014.3 0.0
23/03:30am 9.8 6.5 8.2 90 0.8 NW 15 20 8 11 1014.8 1014.8 0.0
23/03:00am 9.6 6.3 8.0 90 0.8 NW 15 20 8 11 1015.5 1015.5 0.0
23/02:30am 9.6 6.7 8.2 91 0.7 NW 13 19 7 10 1015.9 1015.9 0.0
23/02:00am 9.1 6.4 7.5 90 0.8 NW 11 15 6 8 1016.3 1016.3 0.0
23/01:30am 9.1 6.1 7.5 90 0.8 NW 13 19 7 10 1016.7 1016.7 0.0
23/01:00am 8.4 5.5 6.7 89 0.8 WNW 11 15 6 8 1017.1 1017.1 0.0
23/12:30am 8.7 5.5 6.8 88 0.9 NW 13 15 7 8 1017.5 1017.5 0.0
23/12:00am 9.0 5.5 7.0 87 0.9 NW 15 19 8 10 1017.9 1017.9 0.0
 
Date/Time
EST
Temp
°C
App
Temp
°C
Dew
Point
°C
Rel
Hum
%
Delta-T
°C
Wind Press
QNH
hPa
Press
MSL
hPa
Rain since
9am
mm
Dir  Spd
km/h
Gust
km/h
Spd
kts
Gust
kts
22/11:30pm 8.8 5.9 6.6 86 1.0 NNW 11 15 6 8 1018.4 1018.4 0.0
22/11:00pm 8.7 5.0 6.3 85 1.1 NW 15 19 8 10 1019.0 1019.0 0.0
22/10:30pm 8.7 4.2 6.0 83 1.2 WNW 19 24 10 13 1019.4 1019.4 0.0
22/10:00pm 9.0 4.3 5.9 81 1.4 WNW 20 26 11 14 1019.5 1019.5 0.0
22/09:30pm 8.9 4.6 5.1 77 1.7 WNW 17 26 9 14 1019.7 1019.7 0.0
22/09:00pm 9.2 4.2 4.8 74 2.0 NW 20 28 11 15 1020.1 1020.2 0.0
22/08:30pm 9.5 4.1 4.7 72 2.1 NW 22 30 12 16 1020.4 1020.5 0.0
22/08:00pm 9.1 5.0 4.3 72 2.1 NW 15 19 8 10 1020.9 1021.0 0.0
22/07:30pm 9.0 4.8 3.6 69 2.3 WNW 15 20 8 11 1021.1 1021.2 0.0
22/07:00pm 9.4 5.2 3.8 68 2.4 NW 15 24 8 13 1020.9 1021.0 0.0
22/06:30pm 9.6 5.0 3.6 66 2.6 NW 17 24 9 13 1021.2 1021.3 0.0
22/06:00pm 9.8 5.1 3.3 64 2.8 NW 17 22 9 12 1021.5 1021.6 0.0
22/05:30pm 9.8 4.5 3.1 63 2.9 WNW 20 28 11 15 1021.8 1021.9 0.0
22/05:00pm 9.9 5.7 3.6 65 2.7 WNW 15 24 8 13 1022.0 1022.1 0.0
22/04:30pm 10.2 5.0 3.5 63 2.9 NW 20 30 11 16 1022.1 1022.2 0.0
22/04:00pm 10.9 5.3 3.5 60 3.2 NW 22 32 12 17 1022.0 1022.1 0.0
22/03:30pm 11.6 5.5 2.9 55 3.8 WNW 24 35 13 19 1022.1 1022.2 0.0
22/03:00pm 11.9 4.9 1.8 50 4.3 WNW 28 37 15 20 1022.4 1022.5 0.0
22/02:40pm 12.1 4.8 2.3 51 4.2 NW 30 50 16 27 1022.5 1022.6 0.0
22/02:30pm 11.8 6.3 4.1 59 3.5 NW 22 30 12 16 1022.7 1022.8 0.0
22/02:00pm 11.2 5.6 3.7 60 3.3 WNW 22 32 12 17 1023.2 1023.3 0.0
22/01:30pm 11.3 6.4 4.1 61 3.2 WNW 19 28 10 15 1023.7 1023.8 0.0
22/01:00pm 11.4 6.4 3.7 59 3.4 W 19 28 10 15 1024.2 1024.3 0.0
22/12:30pm 11.3 6.1 3.8 60 3.3 WNW 20 28 11 15 1024.6 1024.7 0.0
22/12:00pm 12.1 6.6 4.1 58 3.6 WNW 22 28 12 15 1024.9 1025.0 0.0
22/11:30am 13.1 8.5 5.5 60 3.6 NW 19 24 10 13 1025.5 1025.6 0.0
22/11:00am 12.4 6.6 4.4 58 3.6 NW 24 32 13 17 1025.8 1025.9 0.0
22/10:30am 13.2 8.7 6.1 62 3.4 NNW 19 26 10 14 1026.3 1026.4 0.0
22/10:00am 11.4 8.2 5.3 66 2.8 NW 11 17 6 9 1026.5 1026.6 0.0
22/09:30am 11.0 8.5 4.7 65 2.8 WNW 7 9 4 5 1026.7 1026.8 0.0
22/09:00am 11.2 8.9 5.7 69 2.5 WNW 7 9 4 5 1026.8 1026.9 0.0
22/08:30am 9.8 7.0 5.0 72 2.2 SW 9 9 5 5 1027.0 1027.1 0.0
22/08:00am 9.3 6.0 4.7 73 2.0 WSW 11 13 6 7 1027.0 1027.1 0.0
22/07:30am 9.1 5.4 4.3 72 2.1 WSW 13 15 7 8 1027.3 1027.4 0.0
22/07:00am 9.2 5.9 4.6 73 2.0 SW 11 15 6 8 1027.1 1027.2 0.0
22/06:30am 9.6 6.4 5.0 73 2.1 SSW 11 13 6 7 1027.1 1027.2 0.0
22/06:00am 8.8 5.0 4.0 72 2.1 SW 13 15 7 8 1027.1 1027.2 0.0
22/05:30am 9.7 6.1 4.9 72 2.2 SW 13 15 7 8 1027.3 1027.4 0.0
22/05:00am 9.4 5.7 4.6 72 2.1 SW 13 15 7 8 1027.2 1027.3 0.0
22/04:30am 8.8 5.7 3.4 69 2.3 WSW 9 11 5 6 1027.2 1027.3 0.0
22/04:00am 10.4 7.8 3.2 61 3.1 E 6 13 3 7 1027.2 1027.3 0.0
22/03:30am 11.2 7.7 3.3 58 3.5 E 11 15 6 8 1027.3 1027.4 0.0
22/03:00am 11.2 7.2 3.0 57 3.5 E 13 17 7 9 1027.5 1027.6 0.0
22/02:30am 11.2 6.8 2.8 56 3.6 E 15 19 8 10 1027.7 1027.8 0.0
22/02:00am 11.2 6.2 3.5 59 3.4 ENE 19 24 10 13 1027.9 1028.0 0.0
22/01:30am 11.0 6.5 2.3 55 3.7 ENE 15 19 8 10 1028.2 1028.3 0.0
22/01:00am 10.9 7.0 3.2 59 3.3 E 13 20 7 11 1028.3 1028.4 0.0
22/12:30am 10.8 7.2 3.1 59 3.4 E 11 17 6 9 1028.5 1028.6 0.0
22/12:00am 10.8 6.8 2.6 57 3.5 E 13 17 7 9 1028.8 1028.9 0.0
 
Date/Time
EST
Temp
°C
App
Temp
°C
Dew
Point
°C
Rel
Hum
%
Delta-T
°C
Wind Press
QNH
hPa
Press
MSL
hPa
Rain since
9am
mm
Dir  Spd
km/h
Gust
km/h
Spd
kts
Gust
kts
21/11:30pm 10.6 6.6 2.9 59 3.3 E 13 15 7 8 1028.9 1029.0 0.0
21/11:00pm 10.5 6.5 2.6 58 3.4 E 13 17 7 9 1029.0 1029.1 0.0
21/10:30pm 10.0 6.0 2.6 60 3.2 E 13 17 7 9 1029.0 1029.1 0.0
21/10:00pm 10.0 5.4 3.5 64 2.8 ESE 17 24 9 13 1029.0 1029.1 0.0
21/09:30pm 10.2 5.0 3.5 63 2.9 ESE 20 28 11 15 1028.9 1029.0 0.0
21/09:00pm 10.6 5.6 3.6 62 3.1 ESE 19 28 10 15 1029.0 1029.1 0.0
21/08:30pm 9.9 4.9 3.6 65 2.8 SE 19 24 10 13 1029.1 1029.2 0.0
21/08:00pm 11.0 5.7 2.8 57 3.5 ESE 20 28 11 15 1029.0 1029.1 0.0
21/07:30pm 11.1 6.1 3.4 59 3.4 SE 19 26 10 14 1028.8 1028.9 0.0
21/07:00pm 11.1 6.1 3.6 60 3.3 SE 19 24 10 13 1028.5 1028.6 0.0
21/06:30pm 10.9 7.0 3.5 60 3.3 ESE 13 19 7 10 1028.3 1028.4 0.0
21/06:00pm 11.1 6.4 3.4 59 3.4 ESE 17 24 9 13 1028.0 1028.1 0.0
21/05:30pm 10.8 6.9 3.4 60 3.2 SE 13 19 7 10 1027.7 1027.8 0.0
21/05:00pm 11.0 9.3 1.8 53 3.9 CALM 0 0 0 0 1027.3 1027.4 0.0
21/04:30pm 11.2 9.5 1.7 52 4.0 CALM 0 0 0 0 1027.2 1027.3 0.0
21/04:00pm 11.4 8.4 2.2 53 3.9 N 7 11 4 6 1026.9 1027.0 0.0
21/03:30pm 11.5 8.8 2.5 54 3.9 E 6 9 3 5 1026.5 1026.6 0.0
21/03:00pm 11.7 9.0 2.5 53 4.0 SE 6 9 3 5 1026.1 1026.2 0.0
21/02:30pm 11.7 8.4 2.5 53 4.0 SE 9 13 5 7 1025.8 1025.9 0.0
21/02:00pm 12.2 9.2 2.1 50 4.3 SSE 7 11 4 6 1025.6 1025.7 0.0
21/01:30pm 12.9 8.7 1.6 46 4.8 S 13 17 7 9 1025.5 1025.6 0.0
21/01:00pm 12.7 8.5 1.7 47 4.7 S 13 17 7 9 1025.5 1025.6 0.0
21/12:30pm 12.7 8.4 3.1 52 4.2 SSW 15 19 8 10 1025.6 1025.7 0.0
21/12:00pm 13.0 8.7 3.1 51 4.4 S 15 20 8 11 1025.7 1025.8 0.0
21/11:30am 13.0 7.8 2.6 49 4.6 S 19 24 10 13 1025.6 1025.7 0.0
21/11:00am 12.6 6.1 2.7 51 4.3 S 26 32 14 17 1026.0 1026.1 0.0
21/10:30am 12.6 6.2 3.3 53 4.1 S 26 30 14 16 1025.8 1025.9 0.0
21/10:00am 11.1 5.1 3.4 59 3.4 SSW 24 32 13 17 1025.6 1025.7 0.0
21/09:30am 10.5 5.2 4.9 68 2.5 SSW 22 28 12 15 1025.2 1025.3 0.0
21/09:00am 9.4 4.9 4.4 71 2.2 SW 17 20 9 11 1024.6 1024.7 0.0
21/08:30am 8.2 4.0 3.9 74 1.9 SW 15 19 8 10 1024.2 1024.3 0.0
21/08:00am 7.4 2.3 2.9 73 1.9 WSW 19 22 10 12 1023.5 1023.6 0.0
21/07:30am 7.8 2.5 3.1 72 2.0 W 20 28 11 15 1022.9 1023.0 0.0
21/07:00am 7.7 2.1 3.2 73 1.9 W 22 28 12 15 1022.3 1022.4 0.0
21/06:30am 7.6 1.1 2.9 72 2.0 W 26 35 14 19 1021.7 1021.8 0.0
21/06:00am 7.9 1.9 3.4 73 1.9 W 24 32 13 17 1021.2 1021.3 0.0
21/05:30am 7.8 2.2 3.5 74 1.8 WNW 22 28 12 15 1020.4 1020.5 0.0
21/05:00am 8.6 1.9 3.8 72 2.1 WNW 28 35 15 19 1019.7 1019.7 0.0
21/04:30am 9.3 3.5 4.3 71 2.2 WNW 24 30 13 16 1019.6 1019.6 0.0
21/04:00am 9.4 4.5 4.2 70 2.3 NW 19 20 10 11 1019.6 1019.6 0.0
21/03:30am 9.4 4.4 4.4 71 2.2 NW 20 26 11 14 1018.9 1018.9 0.0
21/03:00am 9.7 4.8 4.3 69 2.4 W 19 22 10 12 1018.5 1018.5 0.0
21/02:30am 10.3 7.8 4.7 68 2.5 WSW 7 11 4 6 1018.4 1018.4 0.0
21/02:00am 11.2 4.8 5.1 66 2.8 W 28 43 15 23 1017.5 1017.5 0.0
21/01:30am 11.8 5.9 5.7 66 2.8 WNW 26 43 14 23 1016.8 1016.8 0.0
21/01:00am 12.1 8.4 7.8 75 2.1 W 17 28 9 15 1016.5 1016.5 0.0
21/12:30am 13.0 6.9 9.8 81 1.6 WNW 32 46 17 25 1015.5 1015.5 0.0
21/12:00am 13.6 4.8 11.0 84 1.4 NW 48 69 26 37 1015.4 1015.4 0.0
 
Date/Time
EST
Temp
°C
App
Temp
°C
Dew
Point
°C
Rel
Hum
%
Delta-T
°C
Wind Press
QNH
hPa
Press
MSL
hPa
Rain since
9am
mm
Dir  Spd
km/h
Gust
km/h
Spd
kts
Gust
kts
20/11:30pm 14.6 5.6 10.2 75 2.3 NW 48 76 26 41 1015.4 1015.4 0.0
20/11:00pm 14.4 4.2 10.0 75 2.3 NW 54 72 29 39 1015.5 1015.5 0.0
20/10:30pm 14.0 5.0 10.4 79 1.9 NW 48 74 26 40 1016.0 1016.0 0.0
20/10:00pm 13.8 3.9 9.8 77 2.1 NW 52 74 28 40 1016.2 1016.2 0.0
20/09:32pm 14.0 5.0 10.2 78 2.0 NW 48 72 26 39 1016.4 1016.4 0.0
20/09:30pm 14.0 4.9 10.0 77 2.1 NW 48 63 26 34 1016.4 1016.4 0.0
20/09:03pm 14.0 5.4 10.2 78 2.0 NW 46 65 25 35 1016.7 1016.7 0.0
20/09:00pm 14.0 5.7 10.2 78 2.0 NW 44 59 24 32 1016.8 1016.8 0.0
20/08:40pm 14.0 5.8 10.4 79 1.9 NW 44 65 24 35 1017.0 1017.0 0.0
20/08:30pm 13.9 6.6 10.3 79 1.9 NW 39 54 21 29 1017.3 1017.3 0.0
20/08:06pm 13.8 6.1 10.2 79 1.9 NNW 41 59 22 32 1017.7 1017.7 0.0
20/08:00pm 13.8 6.9 10.2 79 1.9 NNW 37 50 20 27 1017.7 1017.7 0.0
20/07:39pm 13.8 6.0 9.8 77 2.1 NW 41 59 22 32 1018.0 1018.0 0.0
20/07:30pm 13.8 5.6 9.8 77 2.1 NW 43 59 23 32 1018.2 1018.2 0.0
20/07:06pm 13.6 5.8 9.6 77 2.0 NW 41 59 22 32 1018.1 1018.1 0.0
20/07:00pm 13.6 6.5 9.6 77 2.0 NW 37 54 20 29 1018.3 1018.3 0.0
20/06:41pm 13.4 5.9 9.6 78 1.9 NW 39 57 21 31 1018.4 1018.4 0.0
20/06:30pm 13.5 5.7 9.7 78 1.9 NW 41 54 22 29 1018.5 1018.5 0.0
20/06:00pm 13.3 6.5 9.4 77 2.0 NW 35 48 19 26 1018.7 1018.7 0.0
20/05:30pm 13.5 7.0 9.0 74 2.3 NW 33 46 18 25 1018.7 1018.7 0.0
20/05:00pm 13.3 6.9 8.6 73 2.3 NW 32 48 17 26 1019.0 1019.0 0.0
20/04:59pm 13.4 7.4 8.7 73 2.4 NW 30 48 16 26 1019.0 1019.0 0.0
20/04:30pm 13.5 6.8 8.1 70 2.7 NW 33 46 18 25 1019.1 1019.1 0.0
20/04:00pm 13.8 7.3 8.2 69 2.8 NW 32 43 17 23 1019.3 1019.3 0.0
20/03:43pm 14.1 7.7 8.5 69 2.8 NW 32 50 17 27 1019.2 1019.2 0.0
20/03:30pm 14.3 7.1 9.1 71 2.6 NW 37 52 20 28 1019.1 1019.1 0.0
20/03:16pm 14.1 6.8 8.7 70 2.7 NW 37 59 20 32 1019.1 1019.1 0.0
20/03:00pm 14.2 7.4 9.2 72 2.5 NW 35 52 19 28 1019.2 1019.2 0.0
20/02:58pm 14.4 7.6 9.4 72 2.6 NW 35 54 19 29 1019.2 1019.2 0.0
20/02:30pm 14.5 6.1 9.1 70 2.8 NW 43 56 23 30 1019.2 1019.2 0.0
20/02:00pm 15.3 6.3 8.8 65 3.3 NW 46 67 25 36 1019.2 1019.2 0.0
20/01:33pm 15.5 6.9 9.0 65 3.3 NW 44 63 24 34 1019.4 1019.4 0.0
20/01:30pm 15.5 6.5 8.7 64 3.5 NW 46 63 25 34 1019.4 1019.4 0.0
20/01:04pm 15.7 7.2 9.1 65 3.4 NW 44 63 24 34 1019.5 1019.5 0.0
20/01:00pm 15.7 7.8 9.4 66 3.2 NW 41 57 22 31 1019.6 1019.6 0.0
20/12:30pm 15.7 6.7 8.7 63 3.6 NW 46 69 25 37 1020.2 1020.3 0.0
20/12:00pm 15.4 4.8 8.4 63 3.5 NW 54 72 29 39 1020.6 1020.7 0.0
20/11:32am 15.8 7.5 7.8 59 4.0 NW 41 61 22 33 1021.2 1021.3 0.0
20/11:30am 15.8 7.5 7.8 59 4.0 NW 41 56 22 30 1021.3 1021.4 0.0
20/11:00am 15.6 7.4 8.4 62 3.6 NW 41 59 22 32 1021.6 1021.7 0.0
20/10:30am 15.4 8.7 8.2 62 3.6 NW 33 46 18 25 1022.2 1022.3 0.0
20/10:00am 14.9 8.1 7.9 63 3.5 NW 33 48 18 26 1022.5 1022.6 0.0
20/09:30am 14.4 8.0 8.6 68 2.9 NW 32 43 17 23 1022.8 1022.9 0.0
20/09:00am 13.7 8.0 9.7 77 2.0 NW 30 46 16 25 1022.9 1023.0 0.2
20/08:30am 13.1 8.1 10.8 86 1.2 NW 28 41 15 22 1023.2 1023.3 0.2
20/08:00am 12.2 8.6 10.4 89 0.9 NNW 20 28 11 15 1023.3 1023.4 0.2
20/07:30am 11.9 9.2 10.3 90 0.8 NW 15 22 8 12 1023.7 1023.8 0.2
20/07:00am 12.0 9.0 10.6 91 0.7 NNW 17 28 9 15 1023.7 1023.8 0.2

Other Formats:

Comma delimited format used in spreadsheet applications
http://www.bom.gov.au/fwo/IDT60801/IDT60801.94983.axf

JavaScript Object Notation format (JSON) in row-major order
http://www.bom.gov.au/fwo/IDT60801/IDT60801.94983.json